This is the latest recevied weather packets stored in our database for station/object E27EKO-13. If no packets are shown the sender has not sent any weather packets the latest 10 day(s).
| Time | Temp. | Humidity | Pressure | Rain* | Wind** | Luminosity | Snow |
|---|---|---|---|---|---|---|---|
| 1787993357 | 28.33° C | 94% | 1006 hPa | - | - | 0 W/m² | - |
| 1787993035 | 29.44° C | 84% | 1006 hPa | - | - | 0 W/m² | - |
| 1787992713 | 31.67° C | 72% | 1007 hPa | - | - | 0 W/m² | - |
| 1787992391 | 33.89° C | 65% | 1006 hPa | - | - | 0 W/m² | - |
| 1787992069 | 34.44° C | 64% | 1006 hPa | - | - | 0 W/m² | - |
| 1787991747 | 35° C | 63% | 1005 hPa | - | - | 0 W/m² | - |
| 1787991425 | 35° C | 60% | 1005 hPa | - | - | 0 W/m² | - |
| 1787991103 | 35° C | 60% | 1005 hPa | - | - | 0 W/m² | - |
| 1787990781 | 35° C | 59% | 1005 hPa | - | - | 0 W/m² | - |
| 1787990459 | 35.56° C | 61% | 1005 hPa | - | - | 0 W/m² | - |
| 1787990137 | 35° C | 60% | 1005 hPa | - | - | 0 W/m² | - |
| 1787989815 | 35.56° C | 59% | 1005 hPa | - | - | 0 W/m² | - |
| 1787989493 | 35.56° C | 58% | 1005 hPa | - | - | 0 W/m² | - |
| 1787989171 | 36.11° C | 57% | 1005 hPa | - | - | 0 W/m² | - |
| 1787988849 | 36.67° C | 56% | 1005 hPa | - | - | 0 W/m² | - |
| 1787988527 | 36.11° C | 57% | 1005 hPa | - | - | 0 W/m² | - |
| 1787988204 | 36.67° C | 57% | 1006 hPa | - | - | 0 W/m² | - |
| 1787987883 | 36.67° C | 56% | 1006 hPa | - | - | 0 W/m² | - |
| 1787987561 | 37.22° C | 54% | 1006 hPa | - | - | 0 W/m² | - |
| 1787987239 | 37.22° C | 54% | 1006 hPa | - | - | 0 W/m² | - |
| 1787986917 | 37.22° C | 55% | 1006 hPa | - | - | 0 W/m² | - |
| 1787986594 | 37.22° C | 55% | 1006 hPa | - | - | 0 W/m² | - |
| 1787986272 | 37.78° C | 55% | 1006 hPa | - | - | 0 W/m² | - |
| 1787985967 | 37.78° C | 54% | 1006 hPa | - | - | 0 W/m² | - |
| 1787985645 | 37.78° C | 54% | 1006 hPa | - | - | 0 W/m² | - |
* Rain since midnight (hover to see other rain measurements)
** Current wind speed in m/s (hover to see current wind gust speed)